sensor_id;sensor_type;location;lat;lon;timestamp;pressure;altitude;pressure_sealevel;temperature
74043;BMP280;62384;53.600;10.040;2023-03-13T00:02:02;55678.66;;;8.14
74043;BMP280;62384;53.600;10.040;2023-03-13T00:04:28;56140.78;;;8.19
74043;BMP280;62384;53.600;10.040;2023-03-13T00:06:53;55944.53;;;8.14
74043;BMP280;62384;53.600;10.040;2023-03-13T00:09:18;55928.94;;;8.17
74043;BMP280;62384;53.600;10.040;2023-03-13T00:11:44;56203.34;;;8.15
74043;BMP280;62384;53.600;10.040;2023-03-13T00:14:10;55933.19;;;8.13
74043;BMP280;62384;53.600;10.040;2023-03-13T00:16:36;55884.00;;;8.14
74043;BMP280;62384;53.600;10.040;2023-03-13T00:19:05;55621.56;;;8.08
74043;BMP280;62384;53.600;10.040;2023-03-13T00:21:31;55761.69;;;8.12
74043;BMP280;62384;53.600;10.040;2023-03-13T00:23:58;55677.84;;;8.13
74043;BMP280;62384;53.600;10.040;2023-03-13T00:26:25;55786.81;;;8.11
74043;BMP280;62384;53.600;10.040;2023-03-13T00:28:51;55627.88;;;8.06
74043;BMP280;62384;53.600;10.040;2023-03-13T00:31:20;55738.59;;;8.09
74043;BMP280;62384;53.600;10.040;2023-03-13T00:33:48;55617.53;;;8.09
74043;BMP280;62384;53.600;10.040;2023-03-13T00:36:19;55370.34;;;8.06
74043;BMP280;62384;53.600;10.040;2023-03-13T00:38:44;55299.53;;;8.03
74043;BMP280;62384;53.600;10.040;2023-03-13T00:41:11;55530.09;;;8.05
74043;BMP280;62384;53.600;10.040;2023-03-13T00:43:38;55765.31;;;8.17
74043;BMP280;62384;53.600;10.040;2023-03-13T00:46:04;56014.63;;;8.22
74043;BMP280;62384;53.600;10.040;2023-03-13T00:48:29;55923.69;;;8.17
74043;BMP280;62384;53.600;10.040;2023-03-13T00:50:55;55842.47;;;8.18
74043;BMP280;62384;53.600;10.040;2023-03-13T00:53:20;55796.91;;;8.23
74043;BMP280;62384;53.600;10.040;2023-03-13T00:56:13;55764.09;;;8.22
74043;BMP280;62384;53.600;10.040;2023-03-13T00:58:40;55608.38;;;8.21
74043;BMP280;62384;53.600;10.040;2023-03-13T01:01:11;55761.66;;;8.25
74043;BMP280;62384;53.600;10.040;2023-03-13T01:03:38;55703.13;;;8.21
74043;BMP280;62384;53.600;10.040;2023-03-13T01:06:06;55653.91;;;8.29
74043;BMP280;62384;53.600;10.040;2023-03-13T01:08:31;55871.44;;;8.31
74043;BMP280;62384;53.600;10.040;2023-03-13T01:11:04;55840.44;;;8.35
74043;BMP280;62384;53.600;10.040;2023-03-13T01:13:31;55792.81;;;8.31
74043;BMP280;62384;53.600;10.040;2023-03-13T01:16:13;55588.25;;;8.32
74043;BMP280;62384;53.600;10.040;2023-03-13T01:18:41;55811.66;;;8.38
74043;BMP280;62384;53.600;10.040;2023-03-13T01:21:07;55571.66;;;8.31
74043;BMP280;62384;53.600;10.040;2023-03-13T01:23:33;55573.84;;;8.37
74043;BMP280;62384;53.600;10.040;2023-03-13T01:25:58;55619.19;;;8.41
74043;BMP280;62384;53.600;10.040;2023-03-13T01:28:24;55799.91;;;8.43
74043;BMP280;62384;53.600;10.040;2023-03-13T01:30:50;55729.41;;;8.41
74043;BMP280;62384;53.600;10.040;2023-03-13T01:33:15;55806.78;;;8.45
74043;BMP280;62384;53.600;10.040;2023-03-13T01:35:41;55669.59;;;8.48
74043;BMP280;62384;53.600;10.040;2023-03-13T01:38:06;55925.72;;;8.52
74043;BMP280;62384;53.600;10.040;2023-03-13T01:40:45;56030.88;;;8.55
74043;BMP280;62384;53.600;10.040;2023-03-13T01:43:21;55998.66;;;8.58
74043;BMP280;62384;53.600;10.040;2023-03-13T01:45:56;56092.50;;;8.60
74043;BMP280;62384;53.600;10.040;2023-03-13T01:48:27;56083.38;;;8.58
74043;BMP280;62384;53.600;10.040;2023-03-13T01:50:55;56112.09;;;8.42
74043;BMP280;62384;53.600;10.040;2023-03-13T01:53:21;56171.34;;;8.63
74043;BMP280;62384;53.600;10.040;2023-03-13T01:55:47;56244.72;;;8.62
74043;BMP280;62384;53.600;10.040;2023-03-13T01:58:13;56405.63;;;8.59
74043;BMP280;62384;53.600;10.040;2023-03-13T02:00:39;56304.31;;;8.64
74043;BMP280;62384;53.600;10.040;2023-03-13T02:03:10;56461.03;;;8.66
74043;BMP280;62384;53.600;10.040;2023-03-13T02:05:37;56692.94;;;8.66
74043;BMP280;62384;53.600;10.040;2023-03-13T02:08:07;56156.13;;;8.60
74043;BMP280;62384;53.600;10.040;2023-03-13T02:10:40;56062.28;;;8.52
74043;BMP280;62384;53.600;10.040;2023-03-13T02:13:07;55682.16;;;8.51
74043;BMP280;62384;53.600;10.040;2023-03-13T02:15:39;55927.75;;;8.55
74043;BMP280;62384;53.600;10.040;2023-03-13T02:18:05;55874.25;;;8.47
74043;BMP280;62384;53.600;10.040;2023-03-13T02:20:30;55710.78;;;8.44
74043;BMP280;62384;53.600;10.040;2023-03-13T02:23:00;55806.59;;;8.42
74043;BMP280;62384;53.600;10.040;2023-03-13T02:25:33;55493.44;;;8.39
74043;BMP280;62384;53.600;10.040;2023-03-13T02:28:02;55249.59;;;8.37
74043;BMP280;62384;53.600;10.040;2023-03-13T02:30:29;55082.38;;;8.32
74043;BMP280;62384;53.600;10.040;2023-03-13T02:32:54;55018.78;;;8.31
74043;BMP280;62384;53.600;10.040;2023-03-13T02:35:21;55118.19;;;8.34
74043;BMP280;62384;53.600;10.040;2023-03-13T02:37:50;54944.84;;;8.34
74043;BMP280;62384;53.600;10.040;2023-03-13T02:40:21;54825.06;;;8.39
74043;BMP280;62384;53.600;10.040;2023-03-13T02:42:49;54523.03;;;8.37
74043;BMP280;62384;53.600;10.040;2023-03-13T02:45:16;54276.06;;;8.27
74043;BMP280;62384;53.600;10.040;2023-03-13T02:47:42;53962.63;;;8.30
74043;BMP280;62384;53.600;10.040;2023-03-13T02:50:08;53490.63;;;8.36
74043;BMP280;62384;53.600;10.040;2023-03-13T02:52:58;53170.31;;;8.30
74043;BMP280;62384;53.600;10.040;2023-03-13T02:55:28;52988.00;;;8.25
74043;BMP280;62384;53.600;10.040;2023-03-13T02:57:53;52797.88;;;8.28
74043;BMP280;62384;53.600;10.040;2023-03-13T03:00:19;52665.66;;;8.30
74043;BMP280;62384;53.600;10.040;2023-03-13T03:02:50;52716.03;;;8.34
74043;BMP280;62384;53.600;10.040;2023-03-13T03:05:15;52702.50;;;8.34
74043;BMP280;62384;53.600;10.040;2023-03-13T03:07:40;52626.59;;;8.41
74043;BMP280;62384;53.600;10.040;2023-03-13T03:10:06;52751.38;;;8.39
74043;BMP280;62384;53.600;10.040;2023-03-13T03:12:31;52752.88;;;8.41
74043;BMP280;62384;53.600;10.040;2023-03-13T03:14:56;53010.03;;;8.51
74043;BMP280;62384;53.600;10.040;2023-03-13T03:17:22;52873.19;;;8.44
74043;BMP280;62384;53.600;10.040;2023-03-13T03:19:47;52789.00;;;8.44
74043;BMP280;62384;53.600;10.040;2023-03-13T03:22:12;52673.19;;;8.33
74043;BMP280;62384;53.600;10.040;2023-03-13T03:24:38;52534.09;;;8.20
74043;BMP280;62384;53.600;10.040;2023-03-13T03:27:03;52559.34;;;8.36
74043;BMP280;62384;53.600;10.040;2023-03-13T03:29:28;52712.28;;;8.40
74043;BMP280;62384;53.600;10.040;2023-03-13T03:31:54;52605.19;;;8.37
74043;BMP280;62384;53.600;10.040;2023-03-13T03:34:19;52493.94;;;8.40
74043;BMP280;62384;53.600;10.040;2023-03-13T03:36:44;52420.69;;;8.33
74043;BMP280;62384;53.600;10.040;2023-03-13T03:39:10;52477.78;;;8.29
74043;BMP280;62384;53.600;10.040;2023-03-13T03:41:35;52397.00;;;8.30
74043;BMP280;62384;53.600;10.040;2023-03-13T03:44:01;52378.59;;;8.23
74043;BMP280;62384;53.600;10.040;2023-03-13T03:46:27;52281.28;;;8.19
74043;BMP280;62384;53.600;10.040;2023-03-13T03:48:52;52239.59;;;8.30
74043;BMP280;62384;53.600;10.040;2023-03-13T03:51:18;52210.69;;;8.23
74043;BMP280;62384;53.600;10.040;2023-03-13T03:53:43;52198.66;;;8.21
74043;BMP280;62384;53.600;10.040;2023-03-13T03:56:09;52171.25;;;8.20
74043;BMP280;62384;53.600;10.040;2023-03-13T03:58:34;52169.41;;;8.14
74043;BMP280;62384;53.600;10.040;2023-03-13T04:00:59;52111.59;;;8.03
74043;BMP280;62384;53.600;10.040;2023-03-13T04:03:25;52117.53;;;8.18
74043;BMP280;62384;53.600;10.040;2023-03-13T04:05:51;52208.81;;;8.14
74043;BMP280;62384;53.600;10.040;2023-03-13T04:08:16;51227.63;;;8.13
74043;BMP280;62384;53.600;10.040;2023-03-13T04:10:42;52126.63;;;7.91
74043;BMP280;62384;53.600;10.040;2023-03-13T04:13:07;52141.22;;;8.15
74043;BMP280;62384;53.600;10.040;2023-03-13T04:15:33;52195.28;;;8.20
74043;BMP280;62384;53.600;10.040;2023-03-13T04:17:58;52168.63;;;8.20
74043;BMP280;62384;53.600;10.040;2023-03-13T04:20:23;52161.13;;;8.13
74043;BMP280;62384;53.600;10.040;2023-03-13T04:22:48;52242.25;;;8.20
74043;BMP280;62384;53.600;10.040;2023-03-13T04:25:14;52278.66;;;8.19
74043;BMP280;62384;53.600;10.040;2023-03-13T04:27:39;52276.03;;;8.19
74043;BMP280;62384;53.600;10.040;2023-03-13T04:30:05;52249.75;;;8.19
74043;BMP280;62384;53.600;10.040;2023-03-13T04:32:31;52247.13;;;8.16
74043;BMP280;62384;53.600;10.040;2023-03-13T04:34:56;52282.06;;;8.24
74043;BMP280;62384;53.600;10.040;2023-03-13T04:37:21;52345.91;;;8.21
74043;BMP280;62384;53.600;10.040;2023-03-13T04:39:47;52368.81;;;8.20
74043;BMP280;62384;53.600;10.040;2023-03-13T04:42:12;52556.63;;;8.18
74043;BMP280;62384;53.600;10.040;2023-03-13T04:44:37;52625.72;;;8.12
74043;BMP280;62384;53.600;10.040;2023-03-13T04:47:03;52726.84;;;8.21
74043;BMP280;62384;53.600;10.040;2023-03-13T04:49:29;52825.63;;;8.19
74043;BMP280;62384;53.600;10.040;2023-03-13T04:51:54;52809.47;;;8.19
74043;BMP280;62384;53.600;10.040;2023-03-13T04:54:20;52840.63;;;8.18
74043;BMP280;62384;53.600;10.040;2023-03-13T04:56:45;53029.25;;;8.17
74043;BMP280;62384;53.600;10.040;2023-03-13T04:59:11;53154.72;;;8.16
74043;BMP280;62384;53.600;10.040;2023-03-13T05:01:38;53356.47;;;8.15
74043;BMP280;62384;53.600;10.040;2023-03-13T05:04:03;53311.00;;;8.14
74043;BMP280;62384;53.600;10.040;2023-03-13T05:06:29;53303.38;;;8.07
74043;BMP280;62384;53.600;10.040;2023-03-13T05:08:54;53283.53;;;8.13
74043;BMP280;62384;53.600;10.040;2023-03-13T05:11:19;53625.53;;;8.16
74043;BMP280;62384;53.600;10.040;2023-03-13T05:13:44;53728.91;;;8.17
74043;BMP280;62384;53.600;10.040;2023-03-13T05:16:09;53772.38;;;8.12
74043;BMP280;62384;53.600;10.040;2023-03-13T05:18:35;53767.50;;;8.13
74043;BMP280;62384;53.600;10.040;2023-03-13T05:21:01;53809.97;;;8.13
74043;BMP280;62384;53.600;10.040;2023-03-13T05:23:26;53824.59;;;8.12
74043;BMP280;62384;53.600;10.040;2023-03-13T05:25:52;53920.47;;;8.13
74043;BMP280;62384;53.600;10.040;2023-03-13T05:28:17;53976.38;;;8.11
74043;BMP280;62384;53.600;10.040;2023-03-13T05:30:42;53991.59;;;8.03
74043;BMP280;62384;53.600;10.040;2023-03-13T05:33:07;54040.59;;;8.08
74043;BMP280;62384;53.600;10.040;2023-03-13T05:35:33;54163.44;;;8.07
74043;BMP280;62384;53.600;10.040;2023-03-13T05:37:58;54236.16;;;8.13
74043;BMP280;62384;53.600;10.040;2023-03-13T05:40:23;54199.88;;;8.07
74043;BMP280;62384;53.600;10.040;2023-03-13T05:42:48;54198.13;;;8.12
74043;BMP280;62384;53.600;10.040;2023-03-13T05:45:13;54491.47;;;8.17
74043;BMP280;62384;53.600;10.040;2023-03-13T05:47:39;54579.00;;;8.14
74043;BMP280;62384;53.600;10.040;2023-03-13T05:50:05;54631.84;;;8.21
74043;BMP280;62384;53.600;10.040;2023-03-13T05:52:31;54646.59;;;8.23
74043;BMP280;62384;53.600;10.040;2023-03-13T05:54:57;54688.47;;;8.26
74043;BMP280;62384;53.600;10.040;2023-03-13T05:57:22;54849.66;;;8.24
74043;BMP280;62384;53.600;10.040;2023-03-13T05:59:48;54823.34;;;8.24
74043;BMP280;62384;53.600;10.040;2023-03-13T06:02:13;54828.59;;;8.24
74043;BMP280;62384;53.600;10.040;2023-03-13T06:04:38;54865.59;;;8.27
74043;BMP280;62384;53.600;10.040;2023-03-13T06:07:03;54907.84;;;8.31
74043;BMP280;62384;53.600;10.040;2023-03-13T06:09:29;54946.28;;;8.33
74043;BMP280;62384;53.600;10.040;2023-03-13T06:11:54;54985.41;;;8.42
74043;BMP280;62384;53.600;10.040;2023-03-13T06:14:19;54948.41;;;8.39
74043;BMP280;62384;53.600;10.040;2023-03-13T06:16:45;54913.69;;;8.45
74043;BMP280;62384;53.600;10.040;2023-03-13T06:19:10;53906.06;;;8.39
74043;BMP280;62384;53.600;10.040;2023-03-13T06:21:36;54874.88;;;8.52
74043;BMP280;62384;53.600;10.040;2023-03-13T06:24:01;54922.41;;;8.56
74043;BMP280;62384;53.600;10.040;2023-03-13T06:26:26;54886.34;;;8.57
74043;BMP280;62384;53.600;10.040;2023-03-13T06:28:51;54863.81;;;8.58
74043;BMP280;62384;53.600;10.040;2023-03-13T06:31:17;54951.28;;;8.62
74043;BMP280;62384;53.600;10.040;2023-03-13T06:33:42;54959.59;;;8.63
74043;BMP280;62384;53.600;10.040;2023-03-13T06:36:08;55034.03;;;8.70
74043;BMP280;62384;53.600;10.040;2023-03-13T06:38:34;55062.34;;;8.73
74043;BMP280;62384;53.600;10.040;2023-03-13T06:40:59;55102.78;;;8.77
74043;BMP280;62384;53.600;10.040;2023-03-13T06:43:25;55101.38;;;8.79
74043;BMP280;62384;53.600;10.040;2023-03-13T06:45:50;55160.53;;;8.81
74043;BMP280;62384;53.600;10.040;2023-03-13T06:48:16;55282.78;;;8.95
74043;BMP280;62384;53.600;10.040;2023-03-13T06:50:42;55235.09;;;8.98
74043;BMP280;62384;53.600;10.040;2023-03-13T06:53:19;55260.81;;;9.01
74043;BMP280;62384;53.600;10.040;2023-03-13T06:55:45;55270.06;;;9.06
74043;BMP280;62384;53.600;10.040;2023-03-13T06:58:10;55248.44;;;9.02
74043;BMP280;62384;53.600;10.040;2023-03-13T07:00:36;55166.69;;;8.75
74043;BMP280;62384;53.600;10.040;2023-03-13T07:03:04;55211.84;;;9.09
74043;BMP280;62384;53.600;10.040;2023-03-13T07:05:29;55202.81;;;9.17
74043;BMP280;62384;53.600;10.040;2023-03-13T07:07:55;55024.22;;;9.25
74043;BMP280;62384;53.600;10.040;2023-03-13T07:10:20;55185.06;;;9.25
74043;BMP280;62384;53.600;10.040;2023-03-13T07:12:45;55048.41;;;9.35
74043;BMP280;62384;53.600;10.040;2023-03-13T07:15:10;55037.75;;;9.42
74043;BMP280;62384;53.600;10.040;2023-03-13T07:17:36;55117.16;;;9.49
74043;BMP280;62384;53.600;10.040;2023-03-13T07:20:03;55219.13;;;9.55
74043;BMP280;62384;53.600;10.040;2023-03-13T07:22:35;55187.25;;;9.58
74043;BMP280;62384;53.600;10.040;2023-03-13T07:25:00;55239.13;;;9.63
74043;BMP280;62384;53.600;10.040;2023-03-13T07:27:25;55333.69;;;9.63
74043;BMP280;62384;53.600;10.040;2023-03-13T07:29:50;55462.25;;;9.72
74043;BMP280;62384;53.600;10.040;2023-03-13T07:32:16;55448.25;;;9.71
74043;BMP280;62384;53.600;10.040;2023-03-13T07:34:41;55455.72;;;9.77
74043;BMP280;62384;53.600;10.040;2023-03-13T07:37:13;55556.41;;;9.77
74043;BMP280;62384;53.600;10.040;2023-03-13T07:39:38;55583.78;;;9.82
74043;BMP280;62384;53.600;10.040;2023-03-13T07:42:04;55653.38;;;9.86
74043;BMP280;62384;53.600;10.040;2023-03-13T07:44:29;55708.19;;;9.89
74043;BMP280;62384;53.600;10.040;2023-03-13T07:46:54;55742.06;;;9.95
74043;BMP280;62384;53.600;10.040;2023-03-13T07:49:20;55817.19;;;9.96
74043;BMP280;62384;53.600;10.040;2023-03-13T07:51:45;55890.28;;;10.02
74043;BMP280;62384;53.600;10.040;2023-03-13T07:54:12;55939.22;;;10.07
74043;BMP280;62384;53.600;10.040;2023-03-13T07:56:38;55970.47;;;10.13
74043;BMP280;62384;53.600;10.040;2023-03-13T07:59:03;56059.66;;;10.22
74043;BMP280;62384;53.600;10.040;2023-03-13T08:01:29;56035.25;;;10.25
74043;BMP280;62384;53.600;10.040;2023-03-13T08:03:54;56106.56;;;10.38
74043;BMP280;62384;53.600;10.040;2023-03-13T08:06:25;56079.34;;;10.37
74043;BMP280;62384;53.600;10.040;2023-03-13T08:08:51;56067.09;;;10.48
74043;BMP280;62384;53.600;10.040;2023-03-13T08:11:19;56136.84;;;10.52
74043;BMP280;62384;53.600;10.040;2023-03-13T08:13:45;56087.81;;;10.60
74043;BMP280;62384;53.600;10.040;2023-03-13T08:16:13;56124.59;;;10.63
74043;BMP280;62384;53.600;10.040;2023-03-13T08:18:43;56197.41;;;10.68
74043;BMP280;62384;53.600;10.040;2023-03-13T08:21:13;56211.44;;;10.76
74043;BMP280;62384;53.600;10.040;2023-03-13T08:23:38;56182.53;;;10.79
74043;BMP280;62384;53.600;10.040;2023-03-13T08:26:06;56083.91;;;10.85
74043;BMP280;62384;53.600;10.040;2023-03-13T08:28:31;56052.56;;;10.92
74043;BMP280;62384;53.600;10.040;2023-03-13T08:30:57;56100.72;;;10.96
74043;BMP280;62384;53.600;10.040;2023-03-13T08:33:22;56049.03;;;11.04
74043;BMP280;62384;53.600;10.040;2023-03-13T08:35:48;56087.47;;;11.09
74043;BMP280;62384;53.600;10.040;2023-03-13T08:38:13;56077.53;;;11.00
74043;BMP280;62384;53.600;10.040;2023-03-13T08:40:38;56177.59;;;11.13
74043;BMP280;62384;53.600;10.040;2023-03-13T08:43:04;55863.75;;;11.24
74043;BMP280;62384;53.600;10.040;2023-03-13T08:45:29;55795.66;;;11.38
74043;BMP280;62384;53.600;10.040;2023-03-13T08:47:54;54985.25;;;11.17
74043;BMP280;62384;53.600;10.040;2023-03-13T08:50:19;56084.38;;;11.22
74043;BMP280;62384;53.600;10.040;2023-03-13T08:52:45;56259.41;;;11.29
74043;BMP280;62384;53.600;10.040;2023-03-13T08:55:10;56227.41;;;11.32
74043;BMP280;62384;53.600;10.040;2023-03-13T08:57:36;56281.56;;;11.40
74043;BMP280;62384;53.600;10.040;2023-03-13T09:00:01;56253.28;;;11.41
74043;BMP280;62384;53.600;10.040;2023-03-13T09:02:26;56262.63;;;11.46
74043;BMP280;62384;53.600;10.040;2023-03-13T09:04:51;56013.34;;;11.59
74043;BMP280;62384;53.600;10.040;2023-03-13T09:07:17;55124.50;;;11.63
74043;BMP280;62384;53.600;10.040;2023-03-13T09:09:42;54950.34;;;11.67
74043;BMP280;62384;53.600;10.040;2023-03-13T09:12:08;54733.03;;;11.70
74043;BMP280;62384;53.600;10.040;2023-03-13T09:14:33;54442.91;;;11.78
74043;BMP280;62384;53.600;10.040;2023-03-13T09:16:58;54150.78;;;11.83
74043;BMP280;62384;53.600;10.040;2023-03-13T09:19:24;54083.97;;;11.89
74043;BMP280;62384;53.600;10.040;2023-03-13T09:21:49;54129.28;;;11.86
74043;BMP280;62384;53.600;10.040;2023-03-13T09:24:15;54249.66;;;11.91
74043;BMP280;62384;53.600;10.040;2023-03-13T09:26:40;54234.69;;;11.99
74043;BMP280;62384;53.600;10.040;2023-03-13T09:29:06;54228.38;;;12.05
74043;BMP280;62384;53.600;10.040;2023-03-13T09:31:32;54268.66;;;12.12
74043;BMP280;62384;53.600;10.040;2023-03-13T09:33:58;54173.25;;;12.09
74043;BMP280;62384;53.600;10.040;2023-03-13T09:36:24;54186.50;;;12.09
74043;BMP280;62384;53.600;10.040;2023-03-13T09:38:51;54224.91;;;12.17
74043;BMP280;62384;53.600;10.040;2023-03-13T09:43:49;54271.00;;;12.15
74043;BMP280;62384;53.600;10.040;2023-03-13T09:49:11;54318.81;;;12.23
74043;BMP280;62384;53.600;10.040;2023-03-13T09:51:39;54358.84;;;12.19
74043;BMP280;62384;53.600;10.040;2023-03-13T09:54:38;54360.09;;;12.25
74043;BMP280;62384;53.600;10.040;2023-03-13T09:59:58;54455.63;;;12.32
74043;BMP280;62384;53.600;10.040;2023-03-13T10:02:33;54338.38;;;12.34
74043;BMP280;62384;53.600;10.040;2023-03-13T10:05:14;54386.44;;;12.35
74043;BMP280;62384;53.600;10.040;2023-03-13T10:07:40;54356.25;;;12.37
74043;BMP280;62384;53.600;10.040;2023-03-13T10:10:13;54427.16;;;12.43
74043;BMP280;62384;53.600;10.040;2023-03-13T10:12:43;54314.69;;;12.41
74043;BMP280;62384;53.600;10.040;2023-03-13T10:15:38;54295.88;;;12.44
74043;BMP280;62384;53.600;10.040;2023-03-13T10:18:17;54336.97;;;12.39
74043;BMP280;62384;53.600;10.040;2023-03-13T10:20:47;54361.88;;;12.51
74043;BMP280;62384;53.600;10.040;2023-03-13T10:23:18;54425.25;;;12.57
74043;BMP280;62384;53.600;10.040;2023-03-13T10:25:44;54537.19;;;12.68
74043;BMP280;62384;53.600;10.040;2023-03-13T10:28:11;54434.94;;;12.66
74043;BMP280;62384;53.600;10.040;2023-03-13T10:30:42;54429.63;;;12.66
74043;BMP280;62384;53.600;10.040;2023-03-13T10:35:42;54701.75;;;12.75
74043;BMP280;62384;53.600;10.040;2023-03-13T10:38:11;55045.28;;;13.21
74043;BMP280;62384;53.600;10.040;2023-03-13T10:40:37;55785.66;;;13.38
74043;BMP280;62384;53.600;10.040;2023-03-13T10:43:05;57763.25;;;13.91
74043;BMP280;62384;53.600;10.040;2023-03-13T10:45:36;59299.59;;;14.09
74043;BMP280;62384;53.600;10.040;2023-03-13T10:48:18;61309.69;;;14.48
74043;BMP280;62384;53.600;10.040;2023-03-13T10:50:46;63681.75;;;15.43
74043;BMP280;62384;53.600;10.040;2023-03-13T10:53:40;66311.56;;;16.17
74043;BMP280;62384;53.600;10.040;2023-03-13T10:56:11;64955.19;;;15.27
74043;BMP280;62384;53.600;10.040;2023-03-13T10:58:49;62434.69;;;14.81
74043;BMP280;62384;53.600;10.040;2023-03-13T11:01:26;60509.22;;;14.25
74043;BMP280;62384;53.600;10.040;2023-03-13T11:03:57;59449.34;;;14.16
74043;BMP280;62384;53.600;10.040;2023-03-13T11:06:28;59712.84;;;13.94
74043;BMP280;62384;53.600;10.040;2023-03-13T11:09:15;58952.19;;;13.73
74043;BMP280;62384;53.600;10.040;2023-03-13T11:11:53;58747.63;;;13.66
74043;BMP280;62384;53.600;10.040;2023-03-13T11:14:20;57891.91;;;13.60
74043;BMP280;62384;53.600;10.040;2023-03-13T11:16:49;57447.03;;;13.56
74043;BMP280;62384;53.600;10.040;2023-03-13T11:22:18;59222.09;;;14.05
74043;BMP280;62384;53.600;10.040;2023-03-13T11:27:43;68073.38;;;16.17
74043;BMP280;62384;53.600;10.040;2023-03-13T11:33:21;68947.03;;;16.21
74043;BMP280;62384;53.600;10.040;2023-03-13T11:35:59;70419.53;;;16.68
74043;BMP280;62384;53.600;10.040;2023-03-13T11:38:37;74151.34;;;18.31
74043;BMP280;62384;53.600;10.040;2023-03-13T11:41:17;138218.16;;;18.01
74043;BMP280;62384;53.600;10.040;2023-03-13T11:46:27;136189.13;;;16.74
74043;BMP280;62384;53.600;10.040;2023-03-13T11:49:09;120330.06;;;16.24
74043;BMP280;62384;53.600;10.040;2023-03-13T11:52:16;121691.78;;;16.05
74043;BMP280;62384;53.600;10.040;2023-03-13T12:02:48;143197.00;;;16.63
74043;BMP280;62384;53.600;10.040;2023-03-13T12:05:18;149678.72;;;17.22
74043;BMP280;62384;53.600;10.040;2023-03-13T12:07:53;154136.16;;;18.11
74043;BMP280;62384;53.600;10.040;2023-03-13T12:10:32;153043.63;;;17.99
74043;BMP280;62384;53.600;10.040;2023-03-13T12:13:04;149644.38;;;17.07
74043;BMP280;62384;53.600;10.040;2023-03-13T12:15:36;145600.22;;;16.36
74043;BMP280;62384;53.600;10.040;2023-03-13T12:18:32;145996.19;;;16.55
74043;BMP280;62384;53.600;10.040;2023-03-13T12:21:04;152578.66;;;17.52
74043;BMP280;62384;53.600;10.040;2023-03-13T12:26:19;150338.72;;;17.02
74043;BMP280;62384;53.600;10.040;2023-03-13T12:32:03;149578.19;;;16.79
74043;BMP280;62384;53.600;10.040;2023-03-13T12:34:51;149559.28;;;16.71
74043;BMP280;62384;53.600;10.040;2023-03-13T12:40:09;148425.91;;;16.39
74043;BMP280;62384;53.600;10.040;2023-03-13T12:42:57;148048.81;;;16.28
74043;BMP280;62384;53.600;10.040;2023-03-13T12:45:24;147694.13;;;16.27
74043;BMP280;62384;53.600;10.040;2023-03-13T12:48:24;150238.91;;;16.60
74043;BMP280;62384;53.600;10.040;2023-03-13T12:54:09;151140.53;;;17.42
74043;BMP280;62384;53.600;10.040;2023-03-13T12:59:37;152243.09;;;17.60
74043;BMP280;62384;53.600;10.040;2023-03-13T13:02:17;150456.31;;;17.52
74043;BMP280;62384;53.600;10.040;2023-03-13T13:04:45;149302.00;;;17.12
74043;BMP280;62384;53.600;10.040;2023-03-13T13:12:39;149731.91;;;17.44
74043;BMP280;62384;53.600;10.040;2023-03-13T13:15:17;150451.56;;;17.50
74043;BMP280;62384;53.600;10.040;2023-03-13T13:17:50;148423.38;;;17.89
74043;BMP280;62384;53.600;10.040;2023-03-13T13:20:31;147627.03;;;17.50
74043;BMP280;62384;53.600;10.040;2023-03-13T13:25:46;147229.88;;;17.31
74043;BMP280;62384;53.600;10.040;2023-03-13T13:30:46;147185.75;;;17.12
74043;BMP280;62384;53.600;10.040;2023-03-13T13:35:45;147602.56;;;17.40
74043;BMP280;62384;53.600;10.040;2023-03-13T13:43:23;148430.38;;;17.92
74043;BMP280;62384;53.600;10.040;2023-03-13T13:45:59;148421.03;;;17.88
74043;BMP280;62384;53.600;10.040;2023-03-13T13:48:29;147300.69;;;17.62
74043;BMP280;62384;53.600;10.040;2023-03-13T13:53:53;147242.59;;;17.37
74043;BMP280;62384;53.600;10.040;2023-03-13T13:56:41;146897.81;;;17.40
74043;BMP280;62384;53.600;10.040;2023-03-13T14:01:46;147267.00;;;17.47
74043;BMP280;62384;53.600;10.040;2023-03-13T14:04:16;147285.63;;;17.55
74043;BMP280;62384;53.600;10.040;2023-03-13T14:06:47;148789.63;;;17.95
74043;BMP280;62384;53.600;10.040;2023-03-13T14:09:29;148112.06;;;18.07
74043;BMP280;62384;53.600;10.040;2023-03-13T14:11:57;147745.81;;;18.02
74043;BMP280;62384;53.600;10.040;2023-03-13T14:17:46;147294.94;;;17.59
74043;BMP280;62384;53.600;10.040;2023-03-13T14:22:55;147707.38;;;17.85
74043;BMP280;62384;53.600;10.040;2023-03-13T14:25:22;146621.22;;;17.73
74043;BMP280;62384;53.600;10.040;2023-03-13T14:27:49;146955.78;;;17.65
74043;BMP280;62384;53.600;10.040;2023-03-13T14:30:17;146967.34;;;17.70
74043;BMP280;62384;53.600;10.040;2023-03-13T14:32:43;147298.34;;;17.61
74043;BMP280;62384;53.600;10.040;2023-03-13T14:35:11;147005.56;;;17.87
74043;BMP280;62384;53.600;10.040;2023-03-13T14:37:44;148071.19;;;17.89
74043;BMP280;62384;53.600;10.040;2023-03-13T14:42:45;147418.03;;;18.13
74043;BMP280;62384;53.600;10.040;2023-03-13T14:45:33;148091.03;;;17.98
74043;BMP280;62384;53.600;10.040;2023-03-13T14:50:45;145880.69;;;17.58
74043;BMP280;62384;53.600;10.040;2023-03-13T14:53:13;145877.19;;;17.57
74043;BMP280;62384;53.600;10.040;2023-03-13T14:55:40;147414.56;;;18.11
74043;BMP280;62384;53.600;10.040;2023-03-13T15:00:50;146267.00;;;17.73
74043;BMP280;62384;53.600;10.040;2023-03-13T15:06:31;145526.66;;;17.58
74043;BMP280;62384;53.600;10.040;2023-03-13T15:08:34;145134.94;;;17.41
74043;BMP280;62384;53.600;10.040;2023-03-13T15:11:00;145502.56;;;17.47
74043;BMP280;62384;53.600;10.040;2023-03-13T15:15:55;145496.84;;;17.45
74043;BMP280;62384;53.600;10.040;2023-03-13T15:18:23;146581.88;;;17.56
74043;BMP280;62384;53.600;10.040;2023-03-13T15:20:54;147330.94;;;17.75
74043;BMP280;62384;53.600;10.040;2023-03-13T15:23:21;146691.69;;;18.04
74043;BMP280;62384;53.600;10.040;2023-03-13T15:25:47;145546.13;;;17.66
74043;BMP280;62384;53.600;10.040;2023-03-13T15:28:18;144787.94;;;17.43
74043;BMP280;62384;53.600;10.040;2023-03-13T15:30:46;144767.41;;;17.34
74043;BMP280;62384;53.600;10.040;2023-03-13T15:33:13;144761.72;;;17.32
74043;BMP280;62384;53.600;10.040;2023-03-13T15:35:39;145114.34;;;17.32
74043;BMP280;62384;53.600;10.040;2023-03-13T15:38:10;145118.91;;;17.34